createdAt,value
2018-12-15T00:01:33.959Z,2.10
2018-12-15T00:04:38.011Z,2.10
2018-12-15T00:07:42.031Z,2.10
2018-12-15T00:10:46.119Z,2.10
2018-12-15T00:13:50.183Z,2.10
2018-12-15T00:16:54.213Z,2.10
2018-12-15T00:19:58.292Z,2.10
2018-12-15T00:23:02.347Z,2.10
2018-12-15T00:26:06.458Z,2.10
2018-12-15T00:29:10.511Z,2.10
2018-12-15T00:32:14.570Z,2.10
2018-12-15T00:35:18.604Z,2.20
2018-12-15T00:38:22.691Z,2.20
2018-12-15T00:41:26.743Z,2.20
2018-12-15T00:44:30.877Z,2.10
2018-12-15T00:47:34.930Z,2.10
2018-12-15T00:50:38.967Z,2.10
2018-12-15T00:53:43.002Z,2.00
2018-12-15T00:56:47.031Z,2.00
2018-12-15T00:59:51.186Z,1.90
2018-12-15T01:02:55.290Z,1.90
2018-12-15T01:05:59.306Z,2.00
2018-12-15T01:09:04.131Z,2.00
2018-12-15T01:12:08.132Z,2.00
2018-12-15T01:15:12.178Z,2.00
2018-12-15T01:18:16.306Z,2.00
2018-12-15T01:21:20.315Z,2.00
2018-12-15T01:24:24.354Z,2.00
2018-12-15T01:27:28.471Z,2.00
2018-12-15T01:30:32.526Z,2.00
2018-12-15T01:33:36.552Z,2.00
2018-12-15T01:36:40.584Z,2.00
2018-12-15T01:39:44.618Z,2.00
2018-12-15T01:42:48.654Z,2.00
2018-12-15T01:45:52.674Z,2.00
2018-12-15T01:48:56.700Z,2.10
2018-12-15T01:52:00.879Z,2.20
2018-12-15T01:55:05.102Z,2.20
2018-12-15T01:58:09.134Z,2.20
2018-12-15T02:01:13.156Z,2.10
2018-12-15T02:04:17.171Z,2.10
2018-12-15T02:07:21.299Z,2.10
2018-12-15T02:10:25.316Z,2.20
2018-12-15T02:13:29.358Z,2.20
2018-12-15T02:16:33.488Z,2.20
2018-12-15T02:19:37.609Z,2.10
2018-12-15T02:22:41.643Z,2.10
2018-12-15T02:25:45.667Z,2.10
2018-12-15T02:28:49.699Z,2.10
2018-12-15T02:31:53.732Z,2.20
2018-12-15T02:34:57.759Z,2.10
2018-12-15T02:38:01.786Z,2.10
2018-12-15T02:41:05.827Z,2.10
2018-12-15T02:44:09.864Z,2.00
2018-12-15T02:47:13.883Z,2.10
2018-12-15T02:50:17.905Z,2.10
2018-12-15T02:53:21.924Z,2.10
2018-12-15T02:56:25.950Z,2.10
2018-12-15T02:59:29.972Z,2.00
2018-12-15T03:02:34.019Z,2.00
2018-12-15T03:05:38.044Z,2.00
2018-12-15T03:08:42.080Z,2.00
2018-12-15T03:11:46.108Z,2.00
2018-12-15T03:14:50.128Z,2.00
2018-12-15T03:17:54.139Z,2.00
2018-12-15T03:21:01.422Z,2.00
2018-12-15T03:24:05.510Z,2.10
2018-12-15T03:27:09.571Z,2.10
2018-12-15T03:30:13.880Z,2.20
2018-12-15T03:33:17.898Z,2.10
2018-12-15T03:36:21.928Z,2.10
2018-12-15T03:39:25.982Z,2.20
2018-12-15T03:42:29.982Z,2.20
2018-12-15T03:45:34.020Z,2.20
2018-12-15T03:48:38.037Z,2.20
2018-12-15T03:51:42.195Z,2.20
2018-12-15T03:54:46.235Z,2.20
2018-12-15T03:57:50.257Z,2.10
2018-12-15T04:01:02.890Z,2.10
2018-12-15T04:04:07.706Z,2.10
2018-12-15T04:07:12.436Z,2.10
2018-12-15T04:10:17.010Z,2.10
2018-12-15T04:13:21.579Z,2.10
2018-12-15T04:16:26.804Z,2.10
2018-12-15T04:19:32.526Z,2.10
2018-12-15T04:22:37.300Z,2.10
2018-12-15T04:28:51.921Z,2.00
2018-12-15T04:31:55.945Z,2.00
2018-12-15T04:34:59.978Z,2.00
2018-12-15T04:38:04.035Z,1.90
2018-12-15T04:41:08.023Z,1.90
2018-12-15T04:44:12.066Z,1.90
2018-12-15T04:47:16.382Z,1.90
2018-12-15T04:50:20.394Z,2.00
2018-12-15T04:53:24.419Z,2.00
2018-12-15T04:56:28.455Z,1.90
2018-12-15T04:59:32.610Z,2.00
2018-12-15T05:02:43.633Z,2.00
2018-12-15T05:05:42.625Z,2.00
2018-12-15T05:08:46.700Z,2.00
2018-12-15T05:11:50.715Z,2.00
2018-12-15T05:14:54.834Z,2.00
2018-12-15T05:17:58.863Z,2.00
2018-12-15T05:21:02.891Z,2.00
2018-12-15T05:24:06.918Z,2.00
2018-12-15T05:27:11.639Z,2.00
2018-12-15T05:30:15.646Z,2.00
2018-12-15T05:33:19.662Z,2.10
2018-12-15T05:36:23.724Z,2.00
2018-12-15T05:39:27.828Z,2.00
2018-12-15T05:42:31.868Z,2.00
2018-12-15T05:45:35.875Z,2.00
2018-12-15T05:48:39.894Z,2.00
2018-12-15T05:51:43.911Z,2.00
2018-12-15T05:54:47.964Z,2.00
2018-12-15T05:57:51.978Z,2.00
2018-12-15T06:00:55.994Z,2.00
2018-12-15T06:04:00.014Z,2.10
2018-12-15T06:07:04.143Z,2.10
2018-12-15T06:10:08.363Z,2.00
2018-12-15T06:13:12.383Z,2.00
2018-12-15T06:16:16.390Z,2.00
2018-12-15T06:19:20.415Z,2.00
2018-12-15T06:22:24.451Z,2.00
2018-12-15T06:25:28.466Z,2.00
2018-12-15T06:28:32.486Z,2.00
2018-12-15T06:31:36.610Z,2.00
2018-12-15T06:34:40.595Z,2.00
2018-12-15T06:37:44.635Z,2.10
2018-12-15T06:40:48.654Z,2.10
2018-12-15T06:43:52.758Z,2.10
2018-12-15T06:46:56.799Z,2.10
2018-12-15T06:50:00.823Z,2.30
2018-12-15T06:53:04.851Z,2.30
2018-12-15T06:56:08.867Z,2.20
2018-12-15T06:59:12.892Z,2.10
2018-12-15T07:02:16.904Z,2.10
2018-12-15T07:05:20.932Z,2.00
2018-12-15T07:08:24.937Z,2.10
2018-12-15T07:11:28.986Z,2.10
2018-12-15T07:14:32.994Z,2.20
2018-12-15T07:17:37.398Z,2.20
2018-12-15T07:20:41.667Z,2.20
2018-12-15T07:23:45.685Z,2.10
2018-12-15T07:26:49.847Z,2.10
2018-12-15T07:29:53.857Z,2.10
2018-12-15T07:32:57.875Z,2.10
2018-12-15T07:36:01.996Z,2.20
2018-12-15T07:39:07.845Z,2.20
2018-12-15T07:42:11.952Z,2.30
2018-12-15T07:45:15.969Z,2.30
2018-12-15T07:48:20.079Z,2.30
2018-12-15T07:51:24.150Z,2.30
2018-12-15T07:54:28.163Z,2.30
2018-12-15T07:57:32.178Z,2.30
2018-12-15T08:00:36.190Z,2.20
2018-12-15T08:03:40.203Z,2.20
2018-12-15T08:06:44.211Z,2.30
2018-12-15T08:09:49.738Z,2.30
2018-12-15T08:13:00.129Z,2.30
2018-12-15T08:16:04.257Z,2.30
2018-12-15T08:19:08.285Z,2.20
2018-12-15T08:22:12.286Z,2.20
2018-12-15T08:25:16.348Z,2.20
2018-12-15T08:28:20.459Z,2.10
2018-12-15T08:31:24.630Z,2.10
2018-12-15T08:34:28.667Z,2.10
2018-12-15T08:37:32.748Z,2.20
2018-12-15T08:40:37.031Z,2.30
2018-12-15T08:43:41.033Z,2.30
2018-12-15T08:46:45.138Z,2.40
2018-12-15T08:49:49.154Z,2.40
2018-12-15T08:52:53.262Z,2.40
2018-12-15T08:55:57.274Z,2.50
2018-12-15T08:59:01.288Z,2.40
2018-12-15T09:02:05.314Z,2.50
2018-12-15T09:05:09.497Z,2.50
2018-12-15T09:08:13.603Z,2.60
2018-12-15T09:11:17.607Z,2.60
2018-12-15T09:14:21.615Z,2.70
2018-12-15T09:17:25.622Z,2.70
2018-12-15T09:20:29.630Z,2.70
2018-12-15T09:23:33.745Z,2.70
2018-12-15T09:26:37.862Z,2.70
2018-12-15T09:29:41.888Z,2.70
2018-12-15T09:32:45.890Z,2.70
2018-12-15T09:35:49.886Z,2.60
2018-12-15T09:38:53.914Z,2.60
2018-12-15T09:41:57.952Z,2.50
2018-12-15T09:45:01.979Z,2.50
2018-12-15T09:48:06.168Z,2.50
2018-12-15T09:51:10.270Z,2.50
2018-12-15T09:54:14.304Z,2.50
2018-12-15T09:57:18.323Z,2.60
2018-12-15T10:00:22.342Z,2.60
2018-12-15T10:03:26.358Z,2.70
2018-12-15T10:06:30.375Z,2.70
2018-12-15T10:09:34.382Z,2.70
2018-12-15T10:12:38.487Z,2.70
2018-12-15T10:15:42.502Z,2.70
2018-12-15T10:18:46.539Z,2.70
2018-12-15T10:21:50.625Z,2.70
2018-12-15T10:24:54.645Z,2.80
2018-12-15T10:27:58.657Z,2.80
2018-12-15T10:31:08.189Z,2.80
2018-12-15T10:34:12.219Z,2.80
2018-12-15T10:37:16.214Z,2.80
2018-12-15T10:40:20.227Z,2.80
2018-12-15T10:43:24.227Z,2.80
2018-12-15T10:46:28.225Z,2.90
2018-12-15T10:49:32.262Z,2.90
2018-12-15T10:52:36.290Z,2.90
2018-12-15T10:55:40.293Z,2.90
2018-12-15T10:58:44.321Z,2.80
2018-12-15T11:01:48.351Z,2.80
2018-12-15T11:04:52.362Z,2.80
2018-12-15T11:07:56.439Z,2.80
2018-12-15T11:11:00.480Z,2.80
2018-12-15T11:14:04.594Z,2.70
2018-12-15T11:17:08.691Z,2.70
2018-12-15T11:20:12.794Z,2.70
2018-12-15T11:23:16.802Z,2.70
2018-12-15T11:26:20.827Z,2.80
2018-12-15T11:29:24.823Z,2.80
2018-12-15T11:32:28.875Z,2.90
2018-12-15T11:35:32.966Z,2.90
2018-12-15T11:38:37.079Z,2.90
2018-12-15T11:41:41.098Z,2.90
2018-12-15T11:44:45.114Z,2.90
2018-12-15T11:47:49.110Z,2.90
2018-12-15T11:50:53.207Z,2.90
2018-12-15T11:53:57.243Z,3.00
2018-12-15T11:57:01.259Z,3.00
2018-12-15T12:00:05.927Z,3.10
2018-12-15T12:03:09.942Z,3.10
2018-12-15T12:06:13.938Z,3.00
2018-12-15T12:09:17.960Z,3.00
2018-12-15T12:12:22.057Z,3.10
2018-12-15T12:15:26.074Z,3.10
2018-12-15T12:18:30.083Z,3.10
2018-12-15T12:21:34.198Z,3.10
2018-12-15T12:24:38.243Z,3.10
2018-12-15T12:27:42.258Z,3.20
2018-12-15T12:30:46.254Z,3.20
2018-12-15T12:33:50.295Z,3.20
2018-12-15T12:36:54.299Z,3.20
2018-12-15T12:39:58.306Z,3.20
2018-12-15T12:43:02.327Z,3.20
2018-12-15T12:46:06.361Z,3.20
2018-12-15T12:49:10.430Z,3.20
2018-12-15T12:52:14.453Z,3.20
2018-12-15T12:55:18.450Z,3.20
2018-12-15T12:58:22.483Z,3.10
2018-12-15T13:01:26.486Z,3.10
2018-12-15T13:04:30.498Z,3.10
2018-12-15T13:07:34.520Z,3.10
2018-12-15T13:10:38.562Z,3.00
2018-12-15T13:13:42.579Z,3.00
2018-12-15T13:16:46.598Z,3.00
2018-12-15T13:19:50.591Z,3.00
2018-12-15T13:22:54.643Z,3.00
2018-12-15T13:25:59.599Z,2.90
2018-12-15T13:29:03.735Z,2.90
2018-12-15T13:32:07.773Z,2.90
2018-12-15T13:35:11.879Z,2.90
2018-12-15T13:38:15.901Z,2.90
2018-12-15T13:41:20.086Z,2.90
2018-12-15T13:44:24.086Z,2.90
2018-12-15T13:47:28.118Z,2.90
2018-12-15T13:50:32.159Z,2.80
2018-12-15T13:53:36.352Z,2.80
2018-12-15T13:56:40.354Z,2.90
2018-12-15T13:59:44.361Z,2.90
2018-12-15T14:02:48.371Z,2.90
2018-12-15T14:05:52.394Z,2.90
2018-12-15T14:08:56.417Z,2.90
2018-12-15T14:12:00.422Z,2.90
2018-12-15T14:15:04.634Z,2.90
2018-12-15T14:18:08.768Z,2.90
2018-12-15T14:21:12.823Z,2.80
2018-12-15T14:24:16.839Z,2.80
2018-12-15T14:27:22.040Z,2.70
2018-12-15T14:30:26.146Z,2.60
2018-12-15T14:33:30.169Z,2.50
2018-12-15T14:36:34.181Z,2.40
2018-12-15T14:39:39.447Z,2.30
2018-12-15T14:42:43.692Z,2.30
2018-12-15T14:45:47.695Z,2.30
2018-12-15T14:48:51.716Z,2.30
2018-12-15T14:51:55.758Z,2.40
2018-12-15T14:54:59.779Z,2.40
2018-12-15T14:58:03.872Z,2.50
2018-12-15T15:01:07.929Z,2.50
2018-12-15T15:04:12.127Z,2.50
2018-12-15T15:07:16.315Z,2.40
2018-12-15T15:10:20.318Z,2.40
2018-12-15T15:13:24.334Z,2.40
2018-12-15T15:16:28.441Z,2.40
2018-12-15T15:19:32.481Z,2.40
2018-12-15T15:22:36.478Z,2.40
2018-12-15T15:25:40.538Z,2.40
2018-12-15T15:28:44.553Z,2.40
2018-12-15T15:31:48.577Z,2.40
2018-12-15T15:34:52.583Z,2.40
2018-12-15T15:37:56.606Z,2.40
2018-12-15T15:41:00.635Z,2.40
2018-12-15T15:44:04.634Z,2.40
2018-12-15T15:47:08.648Z,2.40
2018-12-15T15:50:12.756Z,2.40
2018-12-15T15:53:17.155Z,2.40
2018-12-15T15:56:21.166Z,2.40
2018-12-15T15:59:25.218Z,2.40
2018-12-15T16:02:29.221Z,2.40
2018-12-15T16:05:33.330Z,2.40
2018-12-15T16:08:37.333Z,2.40
2018-12-15T16:11:41.346Z,2.40
2018-12-15T16:14:45.536Z,2.30
2018-12-15T16:17:49.548Z,2.30
2018-12-15T16:20:53.635Z,2.30
2018-12-15T16:23:57.672Z,2.30
2018-12-15T16:27:01.703Z,2.30
2018-12-15T16:30:08.661Z,2.40
2018-12-15T16:33:12.662Z,2.40
2018-12-15T16:36:16.670Z,2.40
2018-12-15T16:39:20.706Z,2.40
2018-12-15T16:42:24.731Z,2.30
2018-12-15T16:45:29.357Z,2.30
2018-12-15T16:48:33.459Z,2.30
2018-12-15T16:51:37.498Z,2.30
2018-12-15T16:54:41.507Z,2.40
2018-12-15T16:57:45.522Z,2.30
2018-12-15T17:00:49.532Z,2.30
2018-12-15T17:03:53.553Z,2.30
2018-12-15T17:06:57.583Z,2.30
2018-12-15T17:10:01.598Z,2.40
2018-12-15T17:13:05.614Z,2.40
2018-12-15T17:16:09.646Z,2.40
2018-12-15T17:19:13.672Z,2.40
2018-12-15T17:22:17.695Z,2.30
2018-12-15T17:25:21.814Z,2.30
2018-12-15T17:28:25.992Z,2.20
2018-12-15T17:31:30.012Z,2.20
2018-12-15T17:34:34.030Z,2.10
2018-12-15T17:37:38.051Z,2.10
2018-12-15T17:40:42.078Z,2.10
2018-12-15T17:43:46.154Z,2.10
2018-12-15T17:46:50.175Z,2.10
2018-12-15T17:49:54.217Z,2.10
2018-12-15T17:52:58.230Z,2.00
2018-12-15T17:56:02.241Z,2.10
2018-12-15T17:59:06.264Z,2.00
2018-12-15T18:02:10.413Z,2.00
2018-12-15T18:05:14.426Z,2.00
2018-12-15T18:08:18.905Z,2.10
2018-12-15T18:11:22.951Z,2.10
2018-12-15T18:14:27.012Z,2.10
2018-12-15T18:17:31.019Z,2.00
2018-12-15T18:20:35.558Z,2.00
2018-12-15T18:23:39.614Z,2.10
2018-12-15T18:26:43.670Z,2.10
2018-12-15T18:29:47.703Z,2.10
2018-12-15T18:32:51.735Z,2.10
2018-12-15T18:35:55.775Z,2.10
2018-12-15T18:38:59.803Z,2.10
2018-12-15T18:42:10.592Z,2.20
2018-12-15T18:45:10.092Z,2.20
2018-12-15T18:48:14.094Z,2.10
2018-12-15T18:51:18.200Z,2.10
2018-12-15T18:54:22.286Z,2.00
2018-12-15T18:57:26.309Z,2.00
2018-12-15T19:00:30.354Z,1.90
2018-12-15T19:03:34.548Z,1.90
2018-12-15T19:06:38.986Z,1.90
2018-12-15T19:09:42.995Z,1.90
2018-12-15T19:12:47.054Z,1.90
2018-12-15T19:15:51.850Z,1.90
2018-12-15T19:18:55.897Z,1.90
2018-12-15T19:22:00.536Z,1.90
2018-12-15T19:25:05.143Z,1.90
2018-12-15T19:28:09.194Z,1.90
2018-12-15T19:31:13.219Z,1.90
2018-12-15T19:34:17.629Z,1.90
2018-12-15T19:37:21.749Z,2.00
2018-12-15T19:40:25.988Z,2.00
2018-12-15T19:43:30.020Z,2.00
2018-12-15T19:46:34.047Z,2.00
2018-12-15T19:49:38.055Z,2.00
2018-12-15T19:52:42.147Z,2.00
2018-12-15T19:55:46.158Z,2.00
2018-12-15T19:58:50.186Z,2.00
2018-12-15T20:01:54.182Z,1.90
2018-12-15T20:04:58.210Z,1.90
2018-12-15T20:08:02.228Z,1.90
2018-12-15T20:11:06.415Z,1.90
2018-12-15T20:14:10.432Z,2.00
2018-12-15T20:17:14.429Z,2.00
2018-12-15T20:20:18.467Z,2.00
2018-12-15T20:23:22.484Z,2.00
2018-12-15T20:26:26.534Z,2.00
2018-12-15T20:29:30.552Z,2.00
2018-12-15T20:32:34.880Z,2.00
2018-12-15T20:35:38.997Z,2.00
2018-12-15T20:38:43.116Z,2.00
2018-12-15T20:41:47.135Z,1.90
2018-12-15T20:44:51.150Z,1.90
2018-12-15T20:47:55.174Z,1.90
2018-12-15T20:50:59.267Z,1.90
2018-12-15T20:54:03.383Z,1.90
2018-12-15T20:57:08.147Z,1.90
2018-12-15T21:00:12.407Z,1.90
2018-12-15T21:03:16.469Z,1.90
2018-12-15T21:06:20.499Z,1.90
2018-12-15T21:09:24.587Z,1.90
2018-12-15T21:12:28.697Z,1.80
2018-12-15T21:15:36.514Z,1.80
2018-12-15T21:18:40.537Z,1.70
2018-12-15T21:21:49.412Z,1.70
2018-12-15T21:24:50.648Z,1.70
2018-12-15T21:27:55.177Z,1.70
2018-12-15T21:30:59.486Z,1.70
2018-12-15T21:34:07.782Z,1.80
2018-12-15T21:37:09.843Z,1.80
2018-12-15T21:40:14.010Z,1.80
2018-12-15T21:43:18.071Z,1.80
2018-12-15T21:46:22.175Z,1.70
2018-12-15T21:49:26.734Z,1.70
2018-12-15T21:52:30.910Z,1.80
2018-12-15T21:55:34.982Z,1.70
2018-12-15T21:58:39.018Z,1.70
2018-12-15T22:01:43.075Z,1.70
2018-12-15T22:04:47.289Z,1.70
2018-12-15T22:07:51.326Z,1.70
2018-12-15T22:10:55.358Z,1.60
2018-12-15T22:13:59.400Z,1.60
2018-12-15T22:17:03.406Z,1.60
2018-12-15T22:20:09.952Z,1.50
2018-12-15T22:23:14.067Z,1.50
2018-12-15T22:26:18.067Z,1.50
2018-12-15T22:29:22.154Z,1.50
2018-12-15T22:32:26.462Z,1.50
2018-12-15T22:35:30.528Z,1.50
2018-12-15T22:38:34.551Z,1.50
2018-12-15T22:41:38.566Z,1.40
2018-12-15T22:44:42.676Z,1.40
2018-12-15T22:47:46.682Z,1.40
2018-12-15T22:50:51.272Z,1.40
2018-12-15T22:53:55.306Z,1.40
2018-12-15T22:56:59.313Z,1.30
2018-12-15T23:00:03.617Z,1.40
2018-12-15T23:03:07.610Z,1.30
2018-12-15T23:06:11.647Z,1.30
2018-12-15T23:09:15.707Z,1.30
2018-12-15T23:12:19.733Z,1.30
2018-12-15T23:15:23.841Z,1.30
2018-12-15T23:18:27.845Z,1.30
2018-12-15T23:21:31.865Z,1.30
2018-12-15T23:24:35.995Z,1.20
2018-12-15T23:27:40.022Z,1.10
2018-12-15T23:30:44.040Z,1.00
2018-12-15T23:33:48.050Z,0.90
2018-12-15T23:36:52.072Z,0.80
2018-12-15T23:39:56.081Z,0.80
2018-12-15T23:43:00.102Z,0.70
2018-12-15T23:46:04.220Z,0.60
2018-12-15T23:49:08.288Z,0.60
2018-12-15T23:52:12.307Z,0.50
2018-12-15T23:55:16.300Z,0.50
2018-12-15T23:58:20.311Z,0.40
